createdAt,value
2019-02-10T00:01:17.758Z,6.70
2019-02-10T00:03:47.251Z,6.70
2019-02-10T00:06:24.337Z,6.60
2019-02-10T00:08:48.289Z,6.50
2019-02-10T00:11:17.709Z,6.30
2019-02-10T00:13:47.169Z,6.40
2019-02-10T00:16:21.338Z,6.50
2019-02-10T00:18:50.818Z,6.60
2019-02-10T00:21:20.334Z,6.50
2019-02-10T00:23:49.783Z,6.40
2019-02-10T00:26:19.209Z,6.50
2019-02-10T00:28:48.657Z,6.60
2019-02-10T00:31:18.069Z,6.60
2019-02-10T00:33:47.500Z,6.60
2019-02-10T00:36:17.022Z,6.50
2019-02-10T00:38:46.490Z,6.60
2019-02-10T00:41:15.937Z,6.60
2019-02-10T00:43:45.385Z,6.70
2019-02-10T00:46:14.823Z,6.60
2019-02-10T00:48:44.289Z,6.60
2019-02-10T00:51:13.758Z,6.60
2019-02-10T00:53:43.240Z,6.50
2019-02-10T00:56:12.685Z,6.50
2019-02-10T00:58:42.141Z,6.40
2019-02-10T01:01:11.629Z,6.30
2019-02-10T01:03:41.218Z,6.20
2019-02-10T01:06:10.682Z,6.20
2019-02-10T01:08:40.135Z,6.40
2019-02-10T01:11:09.589Z,6.40
2019-02-10T01:13:39.173Z,6.40
2019-02-10T01:16:08.745Z,6.40
2019-02-10T01:18:38.177Z,6.50
2019-02-10T01:21:08.170Z,6.50
2019-02-10T01:23:37.801Z,6.40
2019-02-10T01:26:07.349Z,6.30
2019-02-10T01:28:37.946Z,6.30
2019-02-10T01:31:07.411Z,6.30
2019-02-10T01:33:36.901Z,5.80
2019-02-10T01:36:06.773Z,5.70
2019-02-10T01:38:36.296Z,5.80
2019-02-10T01:41:05.794Z,5.80
2019-02-10T01:43:35.318Z,6.10
2019-02-10T01:46:04.801Z,6.20
2019-02-10T01:48:34.396Z,6.10
2019-02-10T01:51:03.949Z,6.20
2019-02-10T01:53:33.419Z,6.20
2019-02-10T01:56:04.442Z,6.10
2019-02-10T01:58:33.867Z,6.20
2019-02-10T02:01:03.758Z,6.10
2019-02-10T02:03:33.221Z,6.00
2019-02-10T02:06:02.849Z,6.10
2019-02-10T02:08:32.307Z,6.00
2019-02-10T02:11:01.791Z,6.10
2019-02-10T02:13:31.337Z,6.00
2019-02-10T02:16:00.814Z,6.00
2019-02-10T02:18:30.228Z,6.00
2019-02-10T02:20:59.685Z,6.00
2019-02-10T02:23:29.114Z,5.90
2019-02-10T02:25:58.568Z,5.60
2019-02-10T02:28:28.074Z,5.70
2019-02-10T02:30:57.574Z,5.80
2019-02-10T02:33:27.031Z,5.80
2019-02-10T02:35:56.483Z,5.70
2019-02-10T02:38:25.932Z,5.60
2019-02-10T02:40:55.509Z,5.80
2019-02-10T02:43:24.936Z,5.80
2019-02-10T02:45:54.389Z,5.70
2019-02-10T02:48:23.841Z,5.80
2019-02-10T02:50:53.281Z,5.70
2019-02-10T02:53:22.701Z,5.70
2019-02-10T02:55:52.186Z,5.70
2019-02-10T02:58:21.613Z,5.70
2019-02-10T03:00:51.090Z,5.80
2019-02-10T03:03:20.532Z,5.70
2019-02-10T03:05:50.060Z,5.70
2019-02-10T03:08:19.529Z,5.80
2019-02-10T03:10:49.021Z,5.70
2019-02-10T03:13:18.458Z,5.50
2019-02-10T03:15:48.029Z,5.60
2019-02-10T03:18:17.475Z,5.60
2019-02-10T03:20:47.020Z,5.70
2019-02-10T03:23:16.551Z,5.70
2019-02-10T03:25:46.146Z,5.60
2019-02-10T03:28:15.616Z,5.70
2019-02-10T03:30:45.063Z,5.70
2019-02-10T03:33:14.560Z,5.70
2019-02-10T03:35:44.063Z,5.60
2019-02-10T03:38:13.586Z,5.50
2019-02-10T03:40:43.019Z,5.30
2019-02-10T03:43:12.468Z,5.40
2019-02-10T03:45:41.920Z,5.50
2019-02-10T03:48:12.508Z,5.50
2019-02-10T03:50:41.949Z,5.30
2019-02-10T03:53:11.597Z,5.10
2019-02-10T03:55:41.051Z,5.10
2019-02-10T03:58:10.543Z,5.20
2019-02-10T04:00:40.004Z,5.30
2019-02-10T04:03:09.552Z,5.30
2019-02-10T04:05:39.041Z,5.40
2019-02-10T04:08:08.467Z,5.40
2019-02-10T04:10:37.909Z,5.40
2019-02-10T04:13:07.456Z,5.40
2019-02-10T04:15:36.879Z,5.20
2019-02-10T04:18:06.373Z,5.20
2019-02-10T04:20:35.812Z,5.30
2019-02-10T04:23:09.432Z,5.30
2019-02-10T04:25:38.889Z,5.40
2019-02-10T04:28:08.366Z,5.30
2019-02-10T04:30:37.782Z,5.30
2019-02-10T04:33:07.232Z,5.10
2019-02-10T04:35:36.771Z,5.20
2019-02-10T04:38:06.194Z,5.00
2019-02-10T04:40:35.658Z,5.20
2019-02-10T04:43:05.225Z,5.20
2019-02-10T04:45:34.682Z,5.10
2019-02-10T04:48:04.163Z,5.20
2019-02-10T04:50:33.638Z,5.10
2019-02-10T04:53:03.084Z,5.20
2019-02-10T04:55:32.512Z,5.20
2019-02-10T04:58:02.034Z,5.20
2019-02-10T05:00:31.531Z,5.20
2019-02-10T05:03:02.462Z,5.20
2019-02-10T05:05:31.881Z,5.20
2019-02-10T05:08:01.350Z,5.20
2019-02-10T05:10:30.790Z,5.00
2019-02-10T05:13:01.621Z,4.70
2019-02-10T05:15:31.133Z,4.90
2019-02-10T05:18:00.625Z,5.00
2019-02-10T05:20:30.111Z,4.70
2019-02-10T05:22:59.610Z,5.10
2019-02-10T05:25:29.025Z,5.20
2019-02-10T05:27:58.463Z,5.20
2019-02-10T05:30:27.921Z,5.00
2019-02-10T05:32:57.362Z,4.90
2019-02-10T05:35:26.804Z,5.00
2019-02-10T05:38:03.968Z,4.80
2019-02-10T05:40:28.493Z,4.70
2019-02-10T05:42:57.971Z,5.00
2019-02-10T05:45:27.399Z,4.80
2019-02-10T05:47:57.098Z,4.90
2019-02-10T05:50:26.557Z,4.60
2019-02-10T05:52:56.086Z,4.90
2019-02-10T05:55:25.514Z,4.80
2019-02-10T05:57:54.954Z,4.70
2019-02-10T06:00:24.385Z,4.80
2019-02-10T06:02:53.880Z,4.90
2019-02-10T06:05:25.750Z,5.10
2019-02-10T06:07:55.231Z,4.90
2019-02-10T06:10:24.629Z,4.70
2019-02-10T06:12:54.115Z,4.50
2019-02-10T06:15:23.566Z,4.50
2019-02-10T06:17:53.043Z,4.50
2019-02-10T06:20:22.499Z,4.50
2019-02-10T06:22:51.976Z,4.60
2019-02-10T06:25:21.497Z,4.60
2019-02-10T06:27:50.888Z,4.70
2019-02-10T06:30:20.344Z,4.70
2019-02-10T06:32:49.806Z,4.50
2019-02-10T06:35:19.262Z,4.30
2019-02-10T06:37:48.756Z,4.50
2019-02-10T06:40:18.292Z,4.70
2019-02-10T06:42:47.716Z,4.80
2019-02-10T06:45:17.183Z,4.80
2019-02-10T06:47:46.613Z,4.70
2019-02-10T06:50:16.083Z,4.40
2019-02-10T06:52:45.555Z,4.60
2019-02-10T06:55:15.008Z,4.70
2019-02-10T06:57:44.432Z,4.80
2019-02-10T07:00:42.583Z,4.70
2019-02-10T07:03:37.063Z,4.60
2019-02-10T07:06:07.447Z,4.60
2019-02-10T07:08:36.907Z,4.60
2019-02-10T07:11:06.373Z,4.70
2019-02-10T07:13:38.284Z,4.80
2019-02-10T07:16:32.973Z,4.80
2019-02-10T07:19:38.254Z,4.90
2019-02-10T07:23:00.128Z,5.20
2019-02-10T07:25:50.677Z,5.60
2019-02-10T07:29:03.471Z,6.30
2019-02-10T07:31:41.300Z,6.20
2019-02-10T07:34:54.117Z,5.70
2019-02-10T07:37:43.915Z,5.50
2019-02-10T07:40:53.703Z,5.50
2019-02-10T07:43:45.751Z,5.40
2019-02-10T07:46:33.988Z,5.30
2019-02-10T07:49:40.406Z,5.40
2019-02-10T07:52:41.720Z,5.90
2019-02-10T07:55:29.068Z,6.10
2019-02-10T07:58:39.577Z,6.30
2019-02-10T08:01:19.429Z,6.10
2019-02-10T08:04:16.146Z,6.00
2019-02-10T08:07:09.219Z,6.20
2019-02-10T08:10:38.307Z,6.20
2019-02-10T08:13:46.942Z,6.00
2019-02-10T08:16:53.364Z,6.00
2019-02-10T08:19:43.956Z,6.00
2019-02-10T08:22:57.478Z,5.90
2019-02-10T08:25:36.444Z,6.00
2019-02-10T08:28:42.597Z,6.20
2019-02-10T08:31:34.996Z,6.40
2019-02-10T08:34:40.218Z,6.60
2019-02-10T08:37:37.743Z,7.10
2019-02-10T08:40:45.555Z,7.50
2019-02-10T08:43:56.124Z,7.40
2019-02-10T08:46:54.535Z,7.00
2019-02-10T08:50:04.919Z,7.30
2019-02-10T08:52:51.963Z,7.20
2019-02-10T08:55:21.418Z,7.10
2019-02-10T08:57:50.951Z,6.90
2019-02-10T09:00:20.411Z,7.00
2019-02-10T09:02:49.848Z,7.00
2019-02-10T09:05:19.273Z,6.90
2019-02-10T09:07:48.762Z,6.80
2019-02-10T09:10:18.182Z,6.90
2019-02-10T09:12:47.710Z,7.00
2019-02-10T09:15:17.122Z,7.10
2019-02-10T09:17:46.662Z,7.20
2019-02-10T09:20:16.113Z,7.30
2019-02-10T09:22:45.603Z,7.30
2019-02-10T09:25:15.102Z,7.40
2019-02-10T09:27:44.591Z,7.50
2019-02-10T09:30:14.324Z,7.60
2019-02-10T09:32:43.798Z,7.50
2019-02-10T09:35:13.267Z,7.80
2019-02-10T09:37:42.900Z,7.70
2019-02-10T09:40:12.770Z,7.60
2019-02-10T09:42:42.213Z,7.60
2019-02-10T09:45:13.022Z,7.70
2019-02-10T09:47:42.563Z,8.10
2019-02-10T09:50:14.854Z,8.10
2019-02-10T09:52:44.309Z,8.20
2019-02-10T09:55:13.752Z,8.00
2019-02-10T09:57:43.204Z,8.20
2019-02-10T10:00:14.237Z,8.60
2019-02-10T10:02:43.769Z,8.90
2019-02-10T10:05:13.524Z,9.30
2019-02-10T10:07:43.040Z,8.60
2019-02-10T10:10:13.100Z,8.90
2019-02-10T10:12:42.604Z,8.80
2019-02-10T10:15:13.973Z,8.90
2019-02-10T10:17:44.541Z,8.80
2019-02-10T10:20:15.853Z,8.50
2019-02-10T10:22:45.343Z,8.20
2019-02-10T10:25:14.901Z,8.30
2019-02-10T10:27:44.476Z,8.80
2019-02-10T10:30:16.127Z,8.90
2019-02-10T10:32:45.571Z,9.50
2019-02-10T10:35:14.993Z,9.70
2019-02-10T10:37:44.550Z,10.00
2019-02-10T10:40:14.243Z,10.00
2019-02-10T10:42:43.750Z,10.10
2019-02-10T10:45:14.745Z,10.70
2019-02-10T10:47:44.228Z,11.50
2019-02-10T10:50:14.206Z,10.50
2019-02-10T10:52:43.696Z,10.40
2019-02-10T10:55:13.226Z,10.30
2019-02-10T10:57:43.095Z,10.40
2019-02-10T11:00:13.233Z,10.80
2019-02-10T11:02:42.815Z,11.20
2019-02-10T11:05:12.416Z,11.10
2019-02-10T11:07:43.471Z,12.10
2019-02-10T11:10:13.307Z,12.10
2019-02-10T11:12:42.900Z,11.60
2019-02-10T11:15:13.022Z,11.60
2019-02-10T11:17:42.445Z,11.80
2019-02-10T11:20:13.936Z,12.00
2019-02-10T11:22:43.377Z,12.00
2019-02-10T11:25:12.885Z,12.40
2019-02-10T11:27:42.753Z,12.70
2019-02-10T11:30:12.290Z,12.50
2019-02-10T11:32:41.724Z,12.20
2019-02-10T11:35:13.465Z,13.80
2019-02-10T11:37:42.890Z,13.80
2019-02-10T11:40:12.407Z,13.10
2019-02-10T11:42:41.824Z,13.30
2019-02-10T11:45:11.459Z,13.90
2019-02-10T11:47:40.927Z,13.50
2019-02-10T11:50:10.654Z,13.00
2019-02-10T11:52:40.094Z,13.50
2019-02-10T11:55:09.717Z,13.90
2019-02-10T11:57:39.196Z,14.00
2019-02-10T12:00:09.989Z,14.30
2019-02-10T12:02:39.538Z,14.30
2019-02-10T12:05:10.035Z,13.70
2019-02-10T12:07:39.557Z,13.40
2019-02-10T12:10:09.346Z,13.50
2019-02-10T12:12:38.911Z,13.40
2019-02-10T12:15:09.333Z,13.30
2019-02-10T12:17:38.756Z,13.10
2019-02-10T12:20:09.336Z,12.90
2019-02-10T12:22:38.858Z,13.00
2019-02-10T12:25:08.700Z,12.90
2019-02-10T12:27:38.186Z,12.90
2019-02-10T12:30:09.904Z,12.90
2019-02-10T12:32:39.407Z,12.80
2019-02-10T12:35:09.560Z,12.80
2019-02-10T12:37:39.085Z,12.90
2019-02-10T12:40:08.687Z,12.80
2019-02-10T12:42:38.108Z,12.80
2019-02-10T12:45:08.159Z,12.80
2019-02-10T12:47:37.646Z,12.90
2019-02-10T12:50:08.509Z,12.90
2019-02-10T12:52:38.163Z,12.90
2019-02-10T12:55:07.871Z,13.00
2019-02-10T12:57:37.319Z,13.10
2019-02-10T13:00:09.007Z,13.00
2019-02-10T13:02:38.487Z,12.90
2019-02-10T13:05:08.021Z,12.80
2019-02-10T13:07:37.598Z,12.80
2019-02-10T13:10:08.498Z,13.00
2019-02-10T13:12:38.006Z,13.00
2019-02-10T13:15:08.202Z,13.10
2019-02-10T13:17:37.664Z,13.20
2019-02-10T13:20:08.484Z,13.40
2019-02-10T13:22:37.948Z,13.60
2019-02-10T13:25:07.808Z,13.30
2019-02-10T13:27:37.303Z,13.30
2019-02-10T13:30:07.643Z,13.40
2019-02-10T13:32:37.094Z,13.30
2019-02-10T13:35:06.786Z,13.10
2019-02-10T13:37:36.273Z,13.20
2019-02-10T13:40:16.245Z,13.10
2019-02-10T13:42:39.257Z,13.20
2019-02-10T13:45:09.076Z,13.20
2019-02-10T13:47:38.632Z,13.10
2019-02-10T13:50:10.225Z,13.10
2019-02-10T13:52:39.785Z,13.20
2019-02-10T13:55:10.383Z,13.20
2019-02-10T13:57:39.874Z,13.30
2019-02-10T14:00:13.044Z,13.30
2019-02-10T14:02:42.496Z,13.30
2019-02-10T14:05:11.989Z,13.20
2019-02-10T14:07:41.500Z,13.20
2019-02-10T14:10:11.824Z,13.20
2019-02-10T14:12:41.323Z,13.20
2019-02-10T14:15:12.198Z,13.20
2019-02-10T14:17:41.657Z,13.10
2019-02-10T14:20:13.122Z,13.10
2019-02-10T14:22:42.630Z,13.00
2019-02-10T14:25:12.050Z,13.00
2019-02-10T14:27:41.483Z,13.00
2019-02-10T14:30:12.664Z,12.80
2019-02-10T14:32:42.149Z,12.80
2019-02-10T14:35:11.582Z,12.80
2019-02-10T14:37:41.025Z,12.70
2019-02-10T14:40:35.189Z,12.80
2019-02-10T14:43:05.624Z,12.90
2019-02-10T14:45:35.068Z,12.70
2019-02-10T14:48:04.546Z,12.90
2019-02-10T14:50:34.001Z,12.90
2019-02-10T14:53:03.480Z,12.70
2019-02-10T14:55:32.942Z,12.70
2019-02-10T14:58:03.896Z,12.80
2019-02-10T15:00:33.345Z,12.60
2019-02-10T15:03:04.558Z,12.70
2019-02-10T15:05:33.987Z,12.70
2019-02-10T15:08:03.483Z,12.80
2019-02-10T15:10:32.987Z,12.70
2019-02-10T15:13:02.432Z,12.60
2019-02-10T15:15:31.864Z,12.70
2019-02-10T15:18:01.359Z,12.50
2019-02-10T15:20:30.772Z,12.50
2019-02-10T15:23:00.255Z,12.60
2019-02-10T15:25:29.707Z,12.40
2019-02-10T15:28:00.675Z,12.50
2019-02-10T15:30:30.132Z,12.50
2019-02-10T15:32:59.616Z,12.60
2019-02-10T15:35:29.048Z,12.50
2019-02-10T15:37:58.480Z,12.30
2019-02-10T15:40:28.064Z,12.30
2019-02-10T15:42:57.480Z,12.50
2019-02-10T15:45:26.924Z,12.50
2019-02-10T15:47:56.375Z,12.50
2019-02-10T15:50:26.877Z,12.50
2019-02-10T15:52:56.327Z,12.50
2019-02-10T15:55:25.787Z,12.50
2019-02-10T15:57:55.219Z,12.40
2019-02-10T16:00:25.833Z,12.30
2019-02-10T16:02:55.362Z,12.50
2019-02-10T16:05:24.944Z,12.50
2019-02-10T16:07:54.433Z,12.50
2019-02-10T16:10:23.900Z,12.50
2019-02-10T16:12:53.370Z,12.50
2019-02-10T16:15:22.846Z,12.50
2019-02-10T16:17:52.313Z,12.50
2019-02-10T16:20:21.819Z,12.30
2019-02-10T16:22:51.271Z,12.20
2019-02-10T16:25:20.729Z,12.30
2019-02-10T16:27:50.171Z,12.20
2019-02-10T16:30:19.644Z,12.10
2019-02-10T16:32:50.281Z,12.10
2019-02-10T16:35:19.918Z,12.10
2019-02-10T16:37:49.409Z,12.20
2019-02-10T16:40:19.836Z,11.90
2019-02-10T16:42:49.365Z,11.90
2019-02-10T16:45:18.857Z,12.10
2019-02-10T16:47:48.332Z,12.00
2019-02-10T16:50:17.812Z,12.00
2019-02-10T16:52:47.336Z,11.90
2019-02-10T16:55:16.975Z,11.60
2019-02-10T16:57:46.432Z,11.80
2019-02-10T17:00:15.942Z,11.80
2019-02-10T17:02:45.408Z,12.10
2019-02-10T17:05:14.894Z,12.00
2019-02-10T17:07:44.351Z,12.00
2019-02-10T17:10:14.242Z,11.90
2019-02-10T17:12:43.700Z,12.00
2019-02-10T17:15:13.198Z,11.80
2019-02-10T17:17:42.624Z,11.80
2019-02-10T17:20:12.582Z,11.80
2019-02-10T17:22:42.030Z,11.80
2019-02-10T17:25:13.355Z,11.90
2019-02-10T17:27:42.850Z,11.80
2019-02-10T17:30:13.563Z,11.70
2019-02-10T17:32:42.988Z,11.60
2019-02-10T17:35:12.702Z,11.70
2019-02-10T17:37:42.264Z,11.60
2019-02-10T17:40:15.470Z,11.50
2019-02-10T17:42:44.906Z,11.60
2019-02-10T17:45:14.456Z,11.60
2019-02-10T17:47:43.958Z,11.40
2019-02-10T17:50:13.538Z,11.50
2019-02-10T17:52:43.027Z,11.40
2019-02-10T17:55:12.476Z,11.30
2019-02-10T17:57:41.963Z,11.30
2019-02-10T18:00:12.473Z,10.90
2019-02-10T18:02:41.941Z,10.50
2019-02-10T18:05:11.525Z,10.60
2019-02-10T18:07:40.982Z,11.00
2019-02-10T18:10:11.380Z,10.80
2019-02-10T18:12:40.802Z,10.70
2019-02-10T18:15:41.229Z,10.90
2019-02-10T18:18:28.069Z,10.90
2019-02-10T18:21:10.025Z,11.20
2019-02-10T18:23:58.106Z,11.10
2019-02-10T18:26:58.905Z,11.20
2019-02-10T18:29:56.518Z,10.70
2019-02-10T18:32:33.915Z,10.70
2019-02-10T18:35:16.894Z,11.00
2019-02-10T18:38:11.662Z,11.00
2019-02-10T18:41:03.182Z,10.70
2019-02-10T18:43:54.640Z,10.60
2019-02-10T18:46:34.134Z,10.70
2019-02-10T18:49:25.863Z,10.50
2019-02-10T18:52:08.194Z,10.60
2019-02-10T18:54:47.131Z,10.70
2019-02-10T18:57:36.638Z,10.60
2019-02-10T19:00:27.094Z,10.50
2019-02-10T19:03:21.688Z,10.40
2019-02-10T19:06:22.239Z,10.60
2019-02-10T19:09:10.609Z,10.30
2019-02-10T19:11:59.826Z,10.50
2019-02-10T19:14:48.218Z,10.30
2019-02-10T19:17:36.608Z,10.30
2019-02-10T19:20:26.519Z,10.20
2019-02-10T19:23:02.168Z,10.30
2019-02-10T19:25:54.033Z,10.30
2019-02-10T19:28:48.571Z,10.20
2019-02-10T19:31:30.402Z,9.90
2019-02-10T19:34:30.994Z,9.80
2019-02-10T19:37:07.730Z,9.50
2019-02-10T19:39:47.678Z,10.00
2019-02-10T19:42:36.130Z,9.90
2019-02-10T19:45:23.682Z,9.80
2019-02-10T19:48:10.868Z,9.80
2019-02-10T19:50:58.082Z,9.70
2019-02-10T19:53:33.523Z,9.80
2019-02-10T19:56:25.048Z,9.60
2019-02-10T19:59:13.443Z,9.60
2019-02-10T20:02:05.819Z,9.60
2019-02-10T20:05:02.839Z,9.80
2019-02-10T20:07:57.142Z,9.30
2019-02-10T20:10:42.674Z,9.40
2019-02-10T20:13:20.638Z,9.30
2019-02-10T20:16:07.902Z,9.60
2019-02-10T20:18:56.410Z,9.60
2019-02-10T20:21:47.486Z,9.30
2019-02-10T20:24:28.971Z,9.40
2019-02-10T20:27:20.147Z,9.10
2019-02-10T20:30:08.541Z,9.30
2019-02-10T20:32:55.719Z,9.20
2019-02-10T20:35:34.185Z,9.20
2019-02-10T20:38:14.707Z,9.20
2019-02-10T20:40:56.122Z,9.10
2019-02-10T20:43:30.423Z,9.00
2019-02-10T20:46:24.875Z,9.00
2019-02-10T20:49:13.289Z,8.80
2019-02-10T20:52:00.560Z,9.30
2019-02-10T20:54:44.588Z,8.90
2019-02-10T20:57:24.466Z,9.00
2019-02-10T21:00:08.128Z,9.20
2019-02-10T21:02:53.386Z,9.00
2019-02-10T21:05:36.525Z,8.80
2019-02-10T21:08:24.661Z,8.40
2019-02-10T21:11:03.537Z,9.10
2019-02-10T21:14:07.305Z,8.80
2019-02-10T21:16:57.536Z,8.20
2019-02-10T21:19:36.744Z,8.60
2019-02-10T21:22:16.377Z,8.40
2019-02-10T21:25:10.631Z,8.60
2019-02-10T21:27:50.792Z,8.60
2019-02-10T21:30:38.162Z,8.60
2019-02-10T21:33:25.244Z,8.20
2019-02-10T21:36:02.839Z,8.50
2019-02-10T21:38:51.257Z,8.30
2019-02-10T21:41:38.906Z,8.30
2019-02-10T21:44:33.137Z,8.50
2019-02-10T21:47:09.385Z,8.40
2019-02-10T21:49:38.874Z,8.40
2019-02-10T21:52:08.519Z,8.30
2019-02-10T21:54:37.949Z,8.20
2019-02-10T21:57:07.461Z,7.90
2019-02-10T21:59:36.915Z,8.40
2019-02-10T22:02:06.373Z,8.50
2019-02-10T22:04:35.799Z,8.10
2019-02-10T22:07:05.290Z,8.10
2019-02-10T22:09:34.866Z,8.20
2019-02-10T22:12:04.354Z,8.00
2019-02-10T22:14:33.802Z,8.20
2019-02-10T22:17:03.257Z,7.90
2019-02-10T22:19:32.718Z,8.30
2019-02-10T22:22:02.172Z,8.00
2019-02-10T22:24:31.642Z,7.70
2019-02-10T22:27:01.133Z,7.90
2019-02-10T22:29:30.570Z,8.10
2019-02-10T22:32:00.224Z,7.80
2019-02-10T22:34:29.651Z,7.80
2019-02-10T22:36:59.277Z,8.00
2019-02-10T22:39:28.728Z,7.90
2019-02-10T22:41:58.168Z,7.80
2019-02-10T22:44:27.681Z,7.90
2019-02-10T22:46:57.166Z,7.60
2019-02-10T22:49:26.637Z,7.50
2019-02-10T22:51:57.604Z,7.70
2019-02-10T22:54:27.021Z,7.70
2019-02-10T22:56:56.510Z,7.80
2019-02-10T22:59:25.958Z,7.80
2019-02-10T23:01:55.405Z,7.80
2019-02-10T23:04:25.074Z,7.70
2019-02-10T23:06:54.515Z,7.50
2019-02-10T23:09:24.879Z,7.50
2019-02-10T23:11:54.328Z,7.60
2019-02-10T23:14:23.779Z,7.80
2019-02-10T23:16:53.237Z,7.60
2019-02-10T23:19:22.696Z,7.20
2019-02-10T23:21:52.125Z,7.70
2019-02-10T23:24:21.577Z,7.30
2019-02-10T23:26:51.042Z,7.10
2019-02-10T23:29:20.496Z,7.40
2019-02-10T23:31:49.954Z,7.30
2019-02-10T23:34:19.406Z,7.20
2019-02-10T23:36:49.009Z,7.20
2019-02-10T23:39:18.462Z,7.30
2019-02-10T23:41:47.966Z,7.30
2019-02-10T23:44:17.440Z,7.20
2019-02-10T23:46:46.925Z,7.10
2019-02-10T23:49:16.405Z,7.30
2019-02-10T23:51:45.943Z,7.00
2019-02-10T23:54:15.439Z,7.00
2019-02-10T23:56:47.193Z,6.90
2019-02-10T23:59:16.030Z,7.00
